Terminal Aerodrome Forecast
Issued by NWS

Home | Current Version | Previous Version | Text Only | Print | Product List | Glossary Off
Versions: 1 2 3 4 5 6 7 8 9 10 11 12 13 14

000
FTUS43 KGRB 191700
TAFCWA
TAF
KCWA 191735Z 1918/2018 14014G22KT P6SM SCT140
     FM200100 16010KT P6SM BKN035 OVC080 WS012/18040KT
      TEMPO 2004/2008 -RA BKN025
     FM200800 19008KT 6SM -RA BR SCT012 OVC020 WS012/21040KT
      TEMPO 2010/2014 4SM -RA BR OVC012
     FM201400 21006KT 5SM -SHRA BR OVC015=

USA.gov is the U.S. government's official web portal to all federal, state and local government web resources and services.